createdAt,value
2019-05-23T00:02:12.360Z,10.48
2019-05-23T00:04:51.113Z,10.00
2019-05-23T00:07:21.128Z,10.67
2019-05-23T00:09:51.264Z,10.40
2019-05-23T00:12:37.463Z,12.10
2019-05-23T00:15:19.318Z,9.90
2019-05-23T00:17:48.491Z,10.47
2019-05-23T00:20:16.963Z,10.00
2019-05-23T00:22:46.201Z,10.80
2019-05-23T00:25:16.172Z,11.13
2019-05-23T00:27:45.263Z,9.97
2019-05-23T00:30:28.695Z,11.10
2019-05-23T00:32:58.648Z,11.20
2019-05-23T00:35:28.095Z,9.13
2019-05-23T00:37:56.574Z,10.95
2019-05-23T00:40:24.860Z,10.77
2019-05-23T00:42:53.511Z,12.90
2019-05-23T00:45:22.529Z,11.93
2019-05-23T00:47:53.039Z,11.03
2019-05-23T00:50:21.499Z,12.60
2019-05-23T00:52:50.915Z,11.87
2019-05-23T00:55:20.342Z,12.70
2019-05-23T00:57:48.694Z,13.70
2019-05-23T01:00:19.898Z,13.68
2019-05-23T01:02:49.634Z,14.35
2019-05-23T01:05:18.721Z,12.68
2019-05-23T01:07:46.991Z,11.90
2019-05-23T01:10:17.508Z,14.83
2019-05-23T01:12:46.327Z,13.27
2019-05-23T01:15:16.834Z,12.33
2019-05-23T01:17:45.847Z,11.33
2019-05-23T01:20:19.420Z,11.80
2019-05-23T01:22:48.983Z,13.03
2019-05-23T01:25:19.172Z,12.77
2019-05-23T01:27:47.622Z,16.33
2019-05-23T01:30:23.478Z,15.57
2019-05-23T01:32:53.389Z,18.10
2019-05-23T01:35:22.334Z,13.53
2019-05-23T01:37:51.032Z,18.02
2019-05-23T01:40:19.851Z,15.30
2019-05-23T01:42:49.387Z,18.60
2019-05-23T01:45:19.328Z,19.33
2019-05-23T01:47:49.281Z,16.93
2019-05-23T01:50:18.295Z,20.10
2019-05-23T01:52:47.117Z,19.77
2019-05-23T01:55:15.399Z,17.10
2019-05-23T01:57:44.060Z,22.03
2019-05-23T02:00:13.743Z,18.77
2019-05-23T02:02:42.106Z,18.60
2019-05-23T02:05:10.528Z,20.77
2019-05-23T02:07:39.007Z,23.50
2019-05-23T02:10:08.815Z,20.52
2019-05-23T02:12:37.753Z,23.53
2019-05-23T02:15:09.928Z,22.60
2019-05-23T02:17:39.845Z,24.50
2019-05-23T02:20:10.318Z,23.02
2019-05-23T02:22:39.950Z,26.02
2019-05-23T02:25:10.102Z,20.97
2019-05-23T02:27:40.032Z,22.63
2019-05-23T02:30:32.345Z,25.70
2019-05-23T02:32:41.776Z,21.70
2019-05-23T02:35:11.806Z,19.80
2019-05-23T02:37:42.466Z,22.90
2019-05-23T02:40:22.675Z,23.57
2019-05-23T02:42:55.344Z,23.50
2019-05-23T02:45:28.681Z,20.73
2019-05-23T02:47:59.123Z,20.65
2019-05-23T02:50:34.677Z,21.50
2019-05-23T02:53:02.978Z,21.57
2019-05-23T02:55:37.274Z,20.33
2019-05-23T02:58:14.635Z,26.50
2019-05-23T03:00:55.503Z,21.37
2019-05-23T03:03:30.403Z,25.17
2019-05-23T03:06:00.383Z,20.17
2019-05-23T03:08:31.215Z,19.87
2019-05-23T03:11:10.015Z,19.40
2019-05-23T03:13:41.486Z,22.32
2019-05-23T03:16:13.116Z,23.83
2019-05-23T03:18:44.541Z,19.07
2019-05-23T03:21:12.983Z,26.45
2019-05-23T03:23:42.085Z,20.77
2019-05-23T03:26:32.046Z,21.30
2019-05-23T03:29:00.523Z,23.00
2019-05-23T03:31:46.628Z,19.60
2019-05-23T03:34:16.576Z,22.50
2019-05-23T03:36:45.130Z,23.73
2019-05-23T03:39:14.267Z,21.57
2019-05-23T03:41:42.539Z,23.60
2019-05-23T03:44:12.723Z,23.13
2019-05-23T03:46:42.899Z,21.93
2019-05-23T03:49:11.375Z,22.22
2019-05-23T03:51:40.933Z,22.27
2019-05-23T03:54:10.862Z,21.43
2019-05-23T03:56:39.135Z,22.47
2019-05-23T03:59:07.782Z,23.07
2019-05-23T04:01:47.667Z,21.95
2019-05-23T04:04:24.395Z,22.37
2019-05-23T04:06:52.770Z,26.03
2019-05-23T04:09:21.215Z,28.50
2019-05-23T04:11:49.584Z,26.80
2019-05-23T04:14:17.863Z,22.30
2019-05-23T04:16:47.217Z,22.53
2019-05-23T04:19:16.563Z,27.30
2019-05-23T04:21:44.843Z,22.95
2019-05-23T04:24:13.138Z,30.17
2019-05-23T04:26:41.411Z,28.03
2019-05-23T04:29:10.364Z,25.90
2019-05-23T04:31:38.931Z,30.73
2019-05-23T04:34:07.308Z,31.53
2019-05-23T04:36:35.626Z,30.57
2019-05-23T04:39:05.469Z,25.57
2019-05-23T04:41:35.673Z,28.60
2019-05-23T04:44:06.286Z,31.75
2019-05-23T04:46:36.342Z,35.43
2019-05-23T04:49:05.040Z,33.87
2019-05-23T04:51:33.407Z,29.13
2019-05-23T04:54:01.911Z,32.00
2019-05-23T04:56:30.678Z,30.97
2019-05-23T04:59:00.796Z,33.45
2019-05-23T05:01:29.197Z,25.92
2019-05-23T05:03:57.584Z,27.48
2019-05-23T05:06:26.668Z,28.63
2019-05-23T05:08:55.596Z,24.87
2019-05-23T05:11:24.010Z,26.57
2019-05-23T05:13:53.877Z,23.77
2019-05-23T05:16:22.185Z,25.30
2019-05-23T05:18:50.879Z,26.23
2019-05-23T05:21:19.282Z,20.62
2019-05-23T05:23:47.635Z,24.83
2019-05-23T05:26:23.513Z,22.85
2019-05-23T05:28:51.977Z,26.07
2019-05-23T05:31:22.122Z,19.32
2019-05-23T05:33:50.497Z,20.90
2019-05-23T05:36:19.160Z,21.97
2019-05-23T05:38:47.929Z,19.33
2019-05-23T05:41:16.462Z,21.48
2019-05-23T05:43:45.221Z,21.70
2019-05-23T05:46:13.791Z,17.82
2019-05-23T05:48:42.194Z,18.50
2019-05-23T05:51:10.620Z,18.60
2019-05-23T05:53:39.542Z,17.48
2019-05-23T05:56:07.931Z,19.93
2019-05-23T05:58:36.282Z,19.53
2019-05-23T06:01:06.554Z,17.47
2019-05-23T06:03:34.908Z,17.63
2019-05-23T06:06:13.985Z,16.93
2019-05-23T06:08:46.619Z,15.10
2019-05-23T06:11:16.126Z,14.60
2019-05-23T06:13:44.680Z,13.40
2019-05-23T06:16:13.440Z,12.00
2019-05-23T06:18:42.094Z,12.30
2019-05-23T06:21:12.332Z,13.67
2019-05-23T06:23:41.300Z,9.83
2019-05-23T06:26:09.635Z,8.10
2019-05-23T06:28:38.779Z,9.00
2019-05-23T06:31:08.339Z,8.07
2019-05-23T06:33:36.871Z,6.78
2019-05-23T06:36:05.796Z,5.60
2019-05-23T06:38:34.351Z,5.87
2019-05-23T06:41:04.024Z,7.80
2019-05-23T06:43:34.113Z,4.58
2019-05-23T06:46:02.783Z,4.93
2019-05-23T06:48:32.736Z,4.90
2019-05-23T06:51:01.043Z,3.58
2019-05-23T06:53:29.393Z,3.98
2019-05-23T06:55:57.671Z,3.98
2019-05-23T06:58:26.308Z,3.85
2019-05-23T07:00:54.869Z,3.93
2019-05-23T07:03:39.981Z,3.97
2019-05-23T07:05:53.349Z,3.57
2019-05-23T07:08:25.600Z,3.60
2019-05-23T07:10:53.885Z,5.77
2019-05-23T07:13:22.604Z,3.50
2019-05-23T07:15:50.929Z,3.00
2019-05-23T07:18:19.236Z,2.37
2019-05-23T07:20:47.590Z,2.80
2019-05-23T07:23:16.431Z,2.60
2019-05-23T07:25:44.936Z,2.90
2019-05-23T07:28:13.418Z,2.30
2019-05-23T07:30:41.741Z,2.73
2019-05-23T07:33:10.683Z,2.87
2019-05-23T07:35:38.933Z,2.27
2019-05-23T07:38:07.258Z,2.50
2019-05-23T07:40:35.540Z,2.27
2019-05-23T07:43:04.842Z,2.27
2019-05-23T07:45:39.762Z,1.50
2019-05-23T07:48:07.598Z,4.10
2019-05-23T07:50:35.892Z,2.47
2019-05-23T07:53:05.250Z,1.93
2019-05-23T07:55:38.196Z,1.87
2019-05-23T07:58:07.230Z,5.13
2019-05-23T08:00:37.196Z,2.20
2019-05-23T08:03:06.132Z,2.03
2019-05-23T08:05:34.592Z,4.83
2019-05-23T08:08:04.038Z,3.77
2019-05-23T08:10:34.441Z,2.30
2019-05-23T08:13:03.305Z,1.70
2019-05-23T08:15:31.953Z,3.00
2019-05-23T08:18:00.411Z,1.52
2019-05-23T08:20:28.647Z,2.30
2019-05-23T08:22:56.979Z,1.85
2019-05-23T08:25:25.288Z,1.90
2019-05-23T08:27:53.640Z,4.03
2019-05-23T08:30:22.495Z,1.80
2019-05-23T08:32:51.056Z,2.50
2019-05-23T08:35:19.381Z,1.63
2019-05-23T08:37:47.905Z,1.87
2019-05-23T08:40:16.801Z,1.33
2019-05-23T08:42:45.628Z,1.80
2019-05-23T08:45:16.493Z,1.70
2019-05-23T08:47:44.887Z,2.03
2019-05-23T08:50:14.919Z,3.00
2019-05-23T08:52:43.273Z,1.70
2019-05-23T08:55:25.816Z,4.20
2019-05-23T08:57:54.696Z,5.67
2019-05-23T09:00:25.140Z,1.70
2019-05-23T09:02:58.284Z,1.47
2019-05-23T09:05:28.920Z,1.90
2019-05-23T09:07:57.338Z,1.60
2019-05-23T09:10:25.984Z,2.27
2019-05-23T09:12:54.471Z,6.10
2019-05-23T09:15:22.768Z,5.80
2019-05-23T09:17:53.881Z,2.10
2019-05-23T09:20:22.170Z,2.30
2019-05-23T09:22:50.456Z,3.25
2019-05-23T09:25:19.018Z,2.47
2019-05-23T09:27:47.484Z,2.67
2019-05-23T09:30:16.119Z,2.73
2019-05-23T09:32:44.397Z,3.50
2019-05-23T09:35:20.899Z,2.90
2019-05-23T09:37:44.918Z,2.37
2019-05-23T09:40:13.209Z,2.67
2019-05-23T09:42:41.643Z,5.12
2019-05-23T09:45:10.023Z,3.58
2019-05-23T09:47:38.389Z,3.42
2019-05-23T09:50:10.347Z,3.22
2019-05-23T09:52:38.786Z,2.93
2019-05-23T09:55:07.887Z,3.13
2019-05-23T09:57:36.276Z,3.30
2019-05-23T10:00:08.113Z,2.90
2019-05-23T10:02:36.376Z,3.45
2019-05-23T10:05:09.674Z,3.07
2019-05-23T10:07:37.981Z,2.43
2019-05-23T10:10:09.328Z,3.50
2019-05-23T10:12:37.617Z,3.17
2019-05-23T10:15:09.125Z,2.57
2019-05-23T10:17:37.433Z,2.70
2019-05-23T10:20:08.524Z,2.20
2019-05-23T10:22:36.810Z,3.50
2019-05-23T10:25:08.395Z,2.73
2019-05-23T10:27:36.771Z,2.90
2019-05-23T10:30:08.478Z,2.83
2019-05-23T10:32:36.909Z,3.30
2019-05-23T10:35:07.923Z,3.77
2019-05-23T10:37:36.223Z,3.40
2019-05-23T10:40:06.671Z,2.37
2019-05-23T10:42:35.044Z,3.60
2019-05-23T10:45:04.278Z,2.90
2019-05-23T10:47:32.603Z,3.40
2019-05-23T10:50:07.730Z,5.95
2019-05-23T10:52:33.293Z,6.33
2019-05-23T10:55:01.802Z,3.50
2019-05-23T10:57:30.206Z,3.35
2019-05-23T10:59:58.926Z,3.37
2019-05-23T11:02:27.368Z,3.10
2019-05-23T11:04:57.351Z,4.40
2019-05-23T11:07:26.494Z,3.72
2019-05-23T11:09:54.904Z,4.40
2019-05-23T11:12:23.543Z,3.65
2019-05-23T11:14:52.100Z,3.20
2019-05-23T11:17:20.583Z,3.83
2019-05-23T11:19:48.945Z,3.80
2019-05-23T11:22:17.313Z,3.73
2019-05-23T11:24:45.783Z,3.87
2019-05-23T11:27:14.092Z,2.80
2019-05-23T11:29:42.407Z,4.63
2019-05-23T11:32:10.901Z,3.43
2019-05-23T11:34:39.252Z,4.80
2019-05-23T11:37:07.541Z,4.67
2019-05-23T11:39:42.176Z,3.63
2019-05-23T11:42:07.484Z,3.53
2019-05-23T11:44:35.808Z,3.83
2019-05-23T11:47:05.128Z,3.40
2019-05-23T11:49:34.535Z,4.40
2019-05-23T11:52:02.840Z,3.80
2019-05-23T11:54:31.335Z,4.80
2019-05-23T11:56:59.958Z,4.77
2019-05-23T11:59:28.473Z,5.17
2019-05-23T12:02:10.165Z,7.40
2019-05-23T12:04:39.831Z,3.77
2019-05-23T12:07:10.856Z,4.07
2019-05-23T12:09:39.261Z,4.13
2019-05-23T12:12:07.625Z,3.40
2019-05-23T12:14:35.990Z,3.47
2019-05-23T12:17:04.383Z,4.47
2019-05-23T12:19:32.673Z,3.65
2019-05-23T12:22:01.046Z,4.70
2019-05-23T12:24:35.100Z,5.57
2019-05-23T12:27:01.199Z,4.13
2019-05-23T12:29:29.617Z,4.00
2019-05-23T12:31:57.974Z,3.97
2019-05-23T12:34:26.320Z,7.60
2019-05-23T12:37:14.198Z,3.30
2019-05-23T12:39:24.852Z,3.77
2019-05-23T12:41:53.205Z,4.13
2019-05-23T12:44:21.604Z,5.30
2019-05-23T12:46:49.900Z,4.53
2019-05-23T12:49:25.564Z,4.13
2019-05-23T12:51:55.288Z,4.60
2019-05-23T12:54:23.847Z,3.53
2019-05-23T12:56:52.192Z,3.77
2019-05-23T12:59:21.687Z,5.27
2019-05-23T13:01:52.531Z,4.07
2019-05-23T13:04:23.932Z,4.67
2019-05-23T13:06:52.219Z,4.47
2019-05-23T13:09:21.862Z,4.17
2019-05-23T13:11:50.749Z,4.60
2019-05-23T13:14:19.710Z,4.70
2019-05-23T13:16:49.164Z,5.30
2019-05-23T13:19:17.736Z,4.57
2019-05-23T13:21:46.018Z,4.00
2019-05-23T13:24:14.342Z,3.90
2019-05-23T13:26:42.742Z,3.73
2019-05-23T13:29:11.104Z,5.50
2019-05-23T13:31:39.993Z,4.90
2019-05-23T13:34:08.305Z,3.83
2019-05-23T13:36:36.679Z,4.87
2019-05-23T13:39:09.552Z,4.60
2019-05-23T13:41:38.004Z,5.17
2019-05-23T13:44:06.529Z,4.80
2019-05-23T13:46:34.854Z,4.70
2019-05-23T13:49:03.387Z,4.90
2019-05-23T13:51:31.801Z,4.60
2019-05-23T13:54:00.109Z,5.90
2019-05-23T13:56:28.389Z,6.37
2019-05-23T13:58:56.708Z,5.63
2019-05-23T14:01:25.074Z,5.00
2019-05-23T14:03:55.125Z,6.42
2019-05-23T14:06:23.456Z,5.58
2019-05-23T14:08:51.845Z,4.30
2019-05-23T14:11:20.810Z,4.53
2019-05-23T14:13:59.783Z,6.37
2019-05-23T14:16:20.815Z,5.23
2019-05-23T14:18:49.160Z,4.40
2019-05-23T14:21:17.636Z,4.27
2019-05-23T14:23:45.942Z,5.56
2019-05-23T14:26:14.459Z,4.17
2019-05-23T14:28:42.941Z,5.07
2019-05-23T14:31:14.590Z,5.10
2019-05-23T14:33:45.988Z,7.62
2019-05-23T14:36:21.769Z,5.13
2019-05-23T14:38:51.724Z,6.20
2019-05-23T14:41:20.137Z,4.27
2019-05-23T14:43:50.154Z,6.33
2019-05-23T14:46:20.155Z,4.13
2019-05-23T14:49:04.952Z,4.87
2019-05-23T14:51:37.931Z,3.90
2019-05-23T14:54:07.951Z,4.50
2019-05-23T14:56:40.213Z,4.87
2019-05-23T14:59:08.768Z,4.10
2019-05-23T15:01:38.560Z,4.00
2019-05-23T15:04:06.932Z,4.90
2019-05-23T15:06:35.770Z,4.47
2019-05-23T15:09:06.104Z,4.27
2019-05-23T15:11:36.169Z,4.10
2019-05-23T15:14:05.346Z,3.50
2019-05-23T15:16:36.057Z,4.78
2019-05-23T15:19:05.918Z,4.62
2019-05-23T15:21:34.235Z,7.07
2019-05-23T15:24:02.624Z,4.60
2019-05-23T15:26:31.003Z,3.70
2019-05-23T15:28:59.341Z,4.47
2019-05-23T15:31:27.905Z,4.90
2019-05-23T15:33:56.793Z,4.07
2019-05-23T15:36:25.189Z,3.57
2019-05-23T15:39:08.141Z,3.03
2019-05-23T15:41:23.475Z,2.90
2019-05-23T15:43:55.100Z,5.47
2019-05-23T15:46:24.416Z,4.37
2019-05-23T15:48:52.773Z,4.17
2019-05-23T15:51:22.835Z,3.70
2019-05-23T15:54:04.305Z,5.35
2019-05-23T15:56:34.271Z,3.47
2019-05-23T15:59:04.282Z,3.37
2019-05-23T16:01:39.840Z,3.50
2019-05-23T16:04:09.743Z,9.70
2019-05-23T16:06:38.723Z,3.83
2019-05-23T16:09:27.733Z,3.17
2019-05-23T16:11:40.288Z,3.97
2019-05-23T16:14:08.708Z,3.37
2019-05-23T16:16:37.315Z,3.87
2019-05-23T16:19:05.841Z,2.73
2019-05-23T16:21:34.716Z,3.00
2019-05-23T16:24:03.091Z,3.10
2019-05-23T16:26:31.349Z,3.20
2019-05-23T16:28:59.783Z,3.15
2019-05-23T16:31:28.065Z,3.25
2019-05-23T16:33:56.350Z,4.00
2019-05-23T16:36:24.896Z,3.60
2019-05-23T16:38:53.192Z,3.20
2019-05-23T16:41:21.578Z,3.50
2019-05-23T16:43:49.846Z,3.77
2019-05-23T16:46:18.168Z,2.47
2019-05-23T16:48:46.588Z,2.83
2019-05-23T16:51:14.908Z,3.20
2019-05-23T16:53:43.195Z,3.17
2019-05-23T16:56:13.179Z,2.50
2019-05-23T16:59:02.966Z,2.93
2019-05-23T17:01:29.555Z,2.70
2019-05-23T17:04:11.147Z,3.33
2019-05-23T17:06:45.639Z,2.20
2019-05-23T17:09:33.424Z,2.50
2019-05-23T17:12:09.465Z,2.30
2019-05-23T17:14:43.517Z,1.70
2019-05-23T17:17:15.303Z,2.30
2019-05-23T17:19:48.135Z,2.40
2019-05-23T17:22:33.968Z,2.00
2019-05-23T17:25:19.982Z,2.52
2019-05-23T17:27:58.694Z,2.10
2019-05-23T17:30:37.487Z,2.60
2019-05-23T17:33:07.509Z,2.27
2019-05-23T17:35:36.209Z,3.47
2019-05-23T17:38:04.572Z,2.10
2019-05-23T17:40:32.899Z,2.40
2019-05-23T17:43:01.197Z,2.40
2019-05-23T17:45:29.631Z,2.23
2019-05-23T17:47:58.582Z,2.10
2019-05-23T17:50:27.205Z,2.47
2019-05-23T17:52:55.492Z,2.20
2019-05-23T17:55:25.674Z,2.87
2019-05-23T17:57:56.839Z,2.98
2019-05-23T18:00:28.582Z,2.20
2019-05-23T18:02:56.961Z,1.80
2019-05-23T18:05:25.593Z,2.23
2019-05-23T18:07:53.886Z,2.93
2019-05-23T18:10:22.425Z,2.23
2019-05-23T18:12:50.768Z,2.20
2019-05-23T18:15:19.511Z,1.90
2019-05-23T18:17:49.461Z,3.13
2019-05-23T18:20:17.898Z,2.15
2019-05-23T18:22:46.298Z,2.52
2019-05-23T18:25:15.225Z,2.55
2019-05-23T18:27:43.999Z,2.42
2019-05-23T18:30:16.621Z,2.70
2019-05-23T18:32:44.982Z,2.60
2019-05-23T18:35:14.194Z,2.10
2019-05-23T18:37:42.485Z,2.20
2019-05-23T18:40:11.533Z,1.87
2019-05-23T18:42:39.853Z,2.50
2019-05-23T18:45:09.243Z,2.43
2019-05-23T18:47:39.206Z,2.47
2019-05-23T18:50:09.944Z,2.40
2019-05-23T18:52:38.209Z,1.73
2019-05-23T18:55:06.846Z,2.22
2019-05-23T18:57:36.376Z,2.13
2019-05-23T19:00:08.278Z,2.20
2019-05-23T19:02:36.613Z,1.90
2019-05-23T19:05:09.379Z,2.33
2019-05-23T19:07:39.115Z,2.60
2019-05-23T19:10:08.893Z,2.33
2019-05-23T19:12:37.407Z,2.07
2019-05-23T19:15:06.710Z,1.63
2019-05-23T19:17:35.893Z,1.80
2019-05-23T19:20:07.186Z,2.93
2019-05-23T19:22:37.343Z,2.10
2019-05-23T19:25:06.931Z,1.70
2019-05-23T19:27:35.575Z,2.10
2019-05-23T19:30:05.923Z,2.37
2019-05-23T19:32:34.194Z,2.40
2019-05-23T19:35:02.481Z,1.83
2019-05-23T19:37:30.740Z,2.30
2019-05-23T19:39:59.290Z,2.20
2019-05-23T19:42:29.830Z,2.07
2019-05-23T19:44:58.196Z,4.63
2019-05-23T19:47:26.454Z,2.50
2019-05-23T19:49:54.809Z,2.67
2019-05-23T19:52:23.152Z,3.15
2019-05-23T19:54:51.416Z,2.15
2019-05-23T19:57:20.249Z,2.37
2019-05-23T19:59:48.577Z,2.60
2019-05-23T20:02:24.320Z,2.55
2019-05-23T20:04:54.424Z,2.20
2019-05-23T20:07:23.094Z,2.40
2019-05-23T20:09:51.337Z,2.60
2019-05-23T20:12:19.860Z,2.20
2019-05-23T20:14:48.206Z,4.20
2019-05-23T20:17:16.570Z,2.53
2019-05-23T20:19:44.932Z,2.35
2019-05-23T20:22:13.234Z,2.43
2019-05-23T20:24:41.588Z,2.50
2019-05-23T20:27:09.868Z,2.87
2019-05-23T20:29:38.139Z,2.70
2019-05-23T20:32:07.472Z,2.80
2019-05-23T20:34:35.914Z,3.03
2019-05-23T20:37:04.287Z,4.00
2019-05-23T20:39:32.825Z,2.70
2019-05-23T20:42:10.831Z,2.80
2019-05-23T20:44:31.102Z,2.90
2019-05-23T20:46:59.605Z,2.80
2019-05-23T20:49:27.915Z,2.47
2019-05-23T20:51:56.164Z,3.07
2019-05-23T20:54:24.511Z,2.67
2019-05-23T20:56:52.792Z,2.87
2019-05-23T20:59:21.061Z,2.80
2019-05-23T21:01:49.787Z,3.23
2019-05-23T21:04:18.075Z,2.83
2019-05-23T21:06:46.411Z,2.90
2019-05-23T21:09:15.974Z,2.93
2019-05-23T21:11:44.496Z,3.70
2019-05-23T21:14:12.956Z,3.30
2019-05-23T21:16:41.223Z,2.73
2019-05-23T21:19:09.522Z,2.67
2019-05-23T21:21:37.795Z,3.17
2019-05-23T21:24:06.412Z,4.03
2019-05-23T21:26:34.719Z,3.60
2019-05-23T21:29:02.978Z,3.30
2019-05-23T21:31:31.390Z,3.05
2019-05-23T21:33:59.716Z,3.10
2019-05-23T21:36:27.991Z,3.12
2019-05-23T21:38:56.332Z,3.00
2019-05-23T21:41:24.614Z,3.60
2019-05-23T21:43:54.538Z,4.40
2019-05-23T21:46:22.817Z,3.43
2019-05-23T21:48:51.094Z,3.63
2019-05-23T21:51:19.428Z,3.43
2019-05-23T21:53:47.712Z,3.77
2019-05-23T21:56:16.029Z,3.77
2019-05-23T21:58:44.311Z,3.53
2019-05-23T22:01:14.587Z,3.97
2019-05-23T22:03:54.039Z,3.75
2019-05-23T22:06:25.006Z,3.75
2019-05-23T22:08:53.979Z,4.30
2019-05-23T22:11:22.670Z,3.30
2019-05-23T22:13:51.004Z,4.87
2019-05-23T22:16:19.269Z,4.37
2019-05-23T22:18:47.560Z,3.60
2019-05-23T22:21:15.901Z,3.77
2019-05-23T22:23:44.191Z,4.53
2019-05-23T22:26:12.472Z,3.33
2019-05-23T22:28:40.838Z,3.80
2019-05-23T22:31:09.871Z,4.40
2019-05-23T22:33:42.764Z,3.80
2019-05-23T22:36:11.125Z,3.90
2019-05-23T22:38:39.412Z,4.57
2019-05-23T22:41:07.748Z,4.10
2019-05-23T22:43:36.087Z,4.13
2019-05-23T22:46:04.354Z,3.90
2019-05-23T22:48:32.623Z,4.33
2019-05-23T22:51:00.913Z,4.03
2019-05-23T22:53:29.184Z,3.97
2019-05-23T22:55:57.471Z,4.58
2019-05-23T22:58:25.793Z,3.95
2019-05-23T23:00:54.076Z,3.88
2019-05-23T23:03:22.353Z,4.05
2019-05-23T23:05:50.626Z,3.83
2019-05-23T23:08:19.063Z,4.80
2019-05-23T23:10:47.360Z,4.65
2019-05-23T23:13:16.207Z,7.03
2019-05-23T23:15:44.498Z,3.90
2019-05-23T23:18:12.775Z,3.40
2019-05-23T23:20:41.067Z,4.15
2019-05-23T23:23:09.337Z,3.50
2019-05-23T23:25:37.613Z,4.33
2019-05-23T23:28:05.974Z,3.90
2019-05-23T23:30:38.542Z,4.63
2019-05-23T23:33:06.822Z,4.50
2019-05-23T23:35:35.671Z,4.37
2019-05-23T23:38:04.134Z,4.37
2019-05-23T23:40:33.197Z,3.90
2019-05-23T23:43:01.502Z,4.47
2019-05-23T23:45:47.508Z,4.50
2019-05-23T23:48:33.424Z,5.07
2019-05-23T23:51:19.268Z,4.47
2019-05-23T23:54:05.439Z,5.40
2019-05-23T23:56:51.651Z,4.97
2019-05-23T23:59:19.172Z,4.20
